createdAt,value
2022-12-05T00:00:52.541Z,101172.41
2022-12-05T00:04:32.245Z,101173.81
2022-12-05T00:07:56.730Z,101166.84
2022-12-05T00:18:49.062Z,101164.22
2022-12-05T00:22:26.010Z,101167.75
2022-12-05T00:26:06.101Z,101169.63
2022-12-05T00:29:35.473Z,101167.62
2022-12-05T00:33:13.989Z,101159.50
2022-12-05T00:37:33.221Z,101159.03
2022-12-05T00:41:10.920Z,101155.09
2022-12-05T00:44:56.202Z,101158.72
2022-12-05T00:48:38.300Z,101153.03
2022-12-05T00:52:14.994Z,101161.50
2022-12-05T00:55:53.012Z,101167.16
2022-12-05T00:59:33.293Z,101161.59
2022-12-05T01:03:10.827Z,101155.09
2022-12-05T01:06:48.898Z,101161.12
2022-12-05T01:10:31.590Z,101157.03
2022-12-05T01:14:25.139Z,101153.06
2022-12-05T01:18:08.446Z,101154.41
2022-12-05T01:21:42.397Z,101147.75
2022-12-05T01:25:14.386Z,101136.03
2022-12-05T01:28:53.358Z,101138.44
2022-12-05T01:32:27.569Z,101133.41
2022-12-05T01:35:57.035Z,101137.59
2022-12-05T01:39:41.294Z,101131.94
2022-12-05T01:43:28.399Z,101133.91
2022-12-05T01:47:09.975Z,101122.75
2022-12-05T01:50:46.534Z,101129.00
2022-12-05T01:54:24.028Z,101128.59
2022-12-05T01:58:03.362Z,101134.31
2022-12-05T02:05:31.092Z,101142.34
2022-12-05T02:09:09.982Z,101137.03
2022-12-05T02:12:50.418Z,101141.47
2022-12-05T02:16:51.925Z,101141.69
2022-12-05T02:21:14.576Z,101135.88
2022-12-05T02:25:13.984Z,101140.62
2022-12-05T02:29:06.191Z,101147.50
2022-12-05T02:33:08.113Z,101150.69
2022-12-05T02:37:06.842Z,101144.72
2022-12-05T02:40:49.614Z,101145.03
2022-12-05T02:44:45.978Z,101143.50
2022-12-05T02:48:30.391Z,101145.87
2022-12-05T02:52:11.562Z,101146.72
2022-12-05T02:55:56.122Z,101149.47
2022-12-05T02:59:38.073Z,101158.22
2022-12-05T03:03:24.198Z,101160.38
2022-12-05T03:07:27.346Z,101161.19
2022-12-05T03:11:02.468Z,101160.84
2022-12-05T03:14:41.743Z,101156.25
2022-12-05T03:22:23.430Z,101162.34
2022-12-05T03:26:52.680Z,101157.97
2022-12-05T03:30:28.889Z,101163.56
2022-12-05T03:34:09.386Z,101159.13
2022-12-05T03:42:15.295Z,101153.56
2022-12-05T03:49:48.497Z,101168.38
2022-12-05T03:53:32.273Z,101151.16
2022-12-05T03:57:36.946Z,101151.34
2022-12-05T04:01:13.817Z,101152.75
2022-12-05T04:04:54.633Z,101149.88
2022-12-05T04:08:42.571Z,101139.06
2022-12-05T04:12:29.973Z,101153.22
2022-12-05T04:16:40.573Z,101160.44
2022-12-05T04:20:53.747Z,101159.81
2022-12-05T04:25:04.036Z,101158.22
2022-12-05T04:28:51.081Z,101153.97
2022-12-05T04:32:24.522Z,101154.16
2022-12-05T04:40:34.834Z,101160.59
2022-12-05T04:44:16.314Z,101157.75
2022-12-05T04:48:04.682Z,101135.22
2022-12-05T04:51:47.349Z,101139.91
2022-12-05T04:55:27.655Z,101142.84
2022-12-05T04:59:04.205Z,101139.63
2022-12-05T05:03:03.817Z,101131.69
2022-12-05T05:06:46.085Z,101139.00
2022-12-05T05:10:45.509Z,101135.78
2022-12-05T05:14:24.767Z,101143.16
2022-12-05T05:17:58.747Z,101141.63
2022-12-05T05:21:38.121Z,101144.19
2022-12-05T05:25:13.044Z,101145.94
2022-12-05T05:28:49.036Z,101148.66
2022-12-05T05:32:30.134Z,101159.34
2022-12-05T05:36:10.482Z,101165.94
2022-12-05T05:39:53.159Z,101154.56
2022-12-05T05:43:30.286Z,101161.16
2022-12-05T05:47:09.204Z,101155.59
2022-12-05T05:50:44.197Z,101163.00
2022-12-05T05:54:20.705Z,101168.00
2022-12-05T05:58:01.353Z,101169.13
2022-12-05T06:01:42.166Z,101167.22
2022-12-05T06:05:18.724Z,101166.81
2022-12-05T06:08:59.498Z,101164.19
2022-12-05T06:12:27.945Z,101165.06
2022-12-05T06:16:01.760Z,101173.63
2022-12-05T06:19:35.565Z,101174.69
2022-12-05T06:23:10.811Z,101192.66
2022-12-05T06:26:33.113Z,101192.28
2022-12-05T06:29:57.650Z,101190.34
2022-12-05T06:33:34.373Z,101179.34
2022-12-05T06:37:09.223Z,101184.84
2022-12-05T06:40:46.055Z,101186.50
2022-12-05T06:44:17.809Z,101188.81
2022-12-05T06:48:15.745Z,101194.62
2022-12-05T06:51:51.439Z,101197.03
2022-12-05T06:55:17.327Z,101200.66
2022-12-05T06:58:35.669Z,101198.31
2022-12-05T07:02:18.176Z,101188.97
2022-12-05T07:05:54.281Z,101196.59
2022-12-05T07:09:18.573Z,101209.25
2022-12-05T07:13:01.861Z,101210.91
2022-12-05T07:16:33.138Z,101212.53
2022-12-05T07:20:16.706Z,101210.16
2022-12-05T07:24:26.245Z,101214.22
2022-12-05T07:31:46.905Z,101219.09
2022-12-05T07:39:24.695Z,101238.47
2022-12-05T07:43:10.114Z,101240.47
2022-12-05T07:46:46.446Z,101239.16
2022-12-05T07:51:57.180Z,101236.53
2022-12-05T07:54:30.456Z,101249.53
2022-12-05T07:58:09.324Z,101244.28
2022-12-05T08:05:39.137Z,101247.50
2022-12-05T08:16:41.147Z,101258.09
2022-12-05T08:28:05.148Z,101260.50
2022-12-05T08:31:48.710Z,101259.31
2022-12-05T08:38:57.515Z,101248.62
2022-12-05T08:42:33.975Z,101251.28
2022-12-05T08:46:15.396Z,101255.53
2022-12-05T08:49:57.350Z,101256.41
2022-12-05T08:53:38.379Z,101253.47
2022-12-05T08:57:18.803Z,101257.16
2022-12-05T09:05:26.959Z,101266.09
2022-12-05T09:09:30.081Z,101255.19
2022-12-05T09:13:50.909Z,101262.66
2022-12-05T09:19:19.901Z,101254.59
2022-12-05T09:21:54.793Z,101251.16
2022-12-05T09:25:41.338Z,101245.91
2022-12-05T09:29:45.492Z,101249.56
2022-12-05T09:33:40.859Z,101254.00
2022-12-05T09:37:50.989Z,101247.91
2022-12-05T09:42:29.006Z,101245.31
2022-12-05T09:46:35.723Z,101248.72
2022-12-05T09:54:06.525Z,101230.53
2022-12-05T10:07:03.967Z,101234.16
2022-12-05T10:19:48.392Z,101205.34
2022-12-05T10:24:03.174Z,101206.34
2022-12-05T10:27:32.083Z,101187.88
2022-12-05T10:31:01.289Z,101177.34
2022-12-05T10:34:44.678Z,101176.59
2022-12-05T10:38:11.527Z,101174.00
2022-12-05T10:45:26.609Z,101173.63
2022-12-05T10:49:15.917Z,101164.00
2022-12-05T10:52:38.946Z,101163.38
2022-12-05T10:56:43.539Z,101164.81
2022-12-05T11:00:34.254Z,101157.25
2022-12-05T11:04:33.019Z,101157.72
2022-12-05T11:08:01.352Z,101155.94
2022-12-05T11:11:34.383Z,101154.91
2022-12-05T11:15:26.190Z,101148.38
2022-12-05T11:19:36.744Z,101137.56
2022-12-05T11:23:25.559Z,101141.84
2022-12-05T11:26:55.037Z,101145.03
2022-12-05T11:30:15.193Z,101141.13
2022-12-05T11:34:22.435Z,101141.00
2022-12-05T11:38:05.673Z,101148.44
2022-12-05T11:41:52.964Z,101140.16
2022-12-05T11:46:05.642Z,101145.06
2022-12-05T11:50:00.284Z,101119.78
2022-12-05T11:58:34.362Z,101111.78
2022-12-05T12:02:26.278Z,101105.25
2022-12-05T12:06:13.966Z,101090.69
2022-12-05T12:10:10.225Z,101102.09
2022-12-05T12:14:00.802Z,101093.00
2022-12-05T12:18:29.567Z,101095.66
2022-12-05T12:26:40.291Z,101092.88
2022-12-05T12:30:42.432Z,101085.53
2022-12-05T12:35:07.812Z,101083.38
2022-12-05T12:39:31.655Z,101077.63
2022-12-05T12:43:53.366Z,101075.19
2022-12-05T12:47:05.538Z,101073.81
2022-12-05T12:50:50.378Z,101075.69
2022-12-05T12:55:02.983Z,101087.41
2022-12-05T12:58:42.011Z,101080.06
2022-12-05T13:02:41.444Z,101081.88
2022-12-05T13:06:22.294Z,101074.06
2022-12-05T13:10:06.232Z,101056.56
2022-12-05T13:13:57.271Z,101060.28
2022-12-05T13:17:31.344Z,101064.97
2022-12-05T13:21:08.455Z,101066.03
2022-12-05T13:24:51.198Z,101054.28
2022-12-05T13:28:35.542Z,101045.12
2022-12-05T13:32:43.806Z,101045.81
2022-12-05T13:36:37.589Z,101051.09
2022-12-05T13:40:23.799Z,101051.28
2022-12-05T13:44:05.874Z,101054.19
2022-12-05T13:47:40.678Z,101057.06
2022-12-05T13:51:34.061Z,101052.53
2022-12-05T13:55:23.614Z,101055.56
2022-12-05T13:58:57.698Z,101057.59
2022-12-05T14:03:21.975Z,101054.37
2022-12-05T14:06:49.360Z,101067.69
2022-12-05T14:10:10.957Z,101074.37
2022-12-05T14:13:50.382Z,101068.53
2022-12-05T14:17:43.990Z,101060.25
2022-12-05T14:21:18.961Z,101051.47
2022-12-05T14:29:06.432Z,101055.38
2022-12-05T14:32:49.467Z,101056.78
2022-12-05T14:36:35.615Z,101060.00
2022-12-05T14:40:39.628Z,101053.94
2022-12-05T14:44:08.364Z,101058.00
2022-12-05T14:47:34.189Z,101057.81
2022-12-05T14:50:57.356Z,101057.63
2022-12-05T14:54:33.901Z,101054.56
2022-12-05T14:58:03.965Z,101050.56
2022-12-05T15:01:37.598Z,101052.41
2022-12-05T15:05:29.770Z,101053.63
2022-12-05T15:09:35.517Z,101053.63
2022-12-05T15:13:01.231Z,101049.00
2022-12-05T15:16:21.863Z,101034.25
2022-12-05T15:20:23.551Z,101037.69
2022-12-05T15:24:13.461Z,101051.84
2022-12-05T15:27:37.709Z,101051.66
2022-12-05T15:31:01.237Z,101045.97
2022-12-05T15:34:44.005Z,101043.91
2022-12-05T15:38:31.938Z,101038.47
2022-12-05T15:41:59.056Z,101027.31
2022-12-05T15:45:28.052Z,101024.09
2022-12-05T15:48:48.255Z,101011.94
2022-12-05T15:52:47.708Z,101006.50
2022-12-05T15:56:28.537Z,101005.75
2022-12-05T16:00:03.672Z,101008.12
2022-12-05T16:03:58.800Z,100996.22
2022-12-05T16:07:37.172Z,101003.13
2022-12-05T16:10:56.812Z,101008.97
2022-12-05T16:18:01.657Z,101017.47
2022-12-05T16:21:49.317Z,101029.84
2022-12-05T16:25:19.181Z,101021.72
2022-12-05T16:28:42.233Z,101013.44
2022-12-05T16:32:26.422Z,101011.22
2022-12-05T16:35:56.505Z,101020.34
2022-12-05T16:39:32.552Z,101016.47
2022-12-05T16:42:41.701Z,101025.41
2022-12-05T16:45:59.808Z,101029.03
2022-12-05T16:49:19.957Z,101033.87
2022-12-05T16:52:38.241Z,101026.63
2022-12-05T16:56:22.510Z,101023.41
2022-12-05T16:59:42.313Z,101022.81
2022-12-05T17:03:35.490Z,101020.16
2022-12-05T17:06:39.873Z,101019.34
2022-12-05T17:10:09.834Z,101022.78
2022-12-05T17:13:29.893Z,101013.66
2022-12-05T17:16:56.651Z,101011.84
2022-12-05T17:20:23.135Z,101017.31
2022-12-05T17:23:47.530Z,101003.16
2022-12-05T17:27:45.287Z,100994.25
2022-12-05T17:31:17.654Z,100979.09
2022-12-05T17:34:49.782Z,100964.72
2022-12-05T17:38:22.482Z,100971.19
2022-12-05T17:45:55.304Z,100970.81
2022-12-05T17:49:25.461Z,100972.91
2022-12-05T17:53:08.599Z,100970.06
2022-12-05T17:56:24.507Z,100970.25
2022-12-05T17:59:58.554Z,100980.16
2022-12-05T18:03:19.653Z,100983.81
2022-12-05T18:06:57.312Z,100986.03
2022-12-05T18:10:33.127Z,100985.41
2022-12-05T18:13:56.113Z,100985.84
2022-12-05T18:17:33.034Z,100974.53
2022-12-05T18:21:08.265Z,100980.97
2022-12-05T18:24:35.054Z,100973.88
2022-12-05T18:27:56.682Z,100971.25
2022-12-05T18:31:33.156Z,100970.47
2022-12-05T18:34:51.432Z,100959.91
2022-12-05T18:38:20.607Z,100961.97
2022-12-05T18:41:51.910Z,100959.16
2022-12-05T18:45:58.927Z,100955.13
2022-12-05T18:49:20.609Z,100952.91
2022-12-05T18:52:36.603Z,100947.66
2022-12-05T18:56:35.693Z,100954.72
2022-12-05T19:00:16.975Z,100954.69
2022-12-05T19:03:48.007Z,100950.66
2022-12-05T19:07:11.803Z,100958.53
2022-12-05T19:10:44.666Z,100955.53
2022-12-05T19:14:21.264Z,100948.63
2022-12-05T19:17:27.587Z,100949.84
2022-12-05T19:20:56.993Z,100941.97
2022-12-05T19:24:27.304Z,100946.59
2022-12-05T19:27:49.619Z,100943.78
2022-12-05T19:31:18.560Z,100933.91
2022-12-05T19:34:41.560Z,100934.28
2022-12-05T19:38:22.618Z,100932.28
2022-12-05T19:42:02.045Z,100930.03
2022-12-05T19:45:30.329Z,100929.03
2022-12-05T19:57:17.268Z,100924.78
2022-12-05T20:00:35.170Z,100919.53
2022-12-05T20:04:12.491Z,100922.97
2022-12-05T20:07:47.117Z,100923.19
2022-12-05T20:11:31.252Z,100924.38
2022-12-05T20:15:07.724Z,100911.87
2022-12-05T20:18:30.460Z,100913.88
2022-12-05T20:25:58.616Z,100919.94
2022-12-05T20:29:30.265Z,100922.34
2022-12-05T20:33:24.025Z,100927.59
2022-12-05T20:37:07.057Z,100921.97
2022-12-05T20:40:32.780Z,100924.16
2022-12-05T20:44:01.370Z,100915.09
2022-12-05T20:47:48.165Z,100915.84
2022-12-05T20:51:40.158Z,100904.31
2022-12-05T20:55:01.213Z,100897.44
2022-12-05T20:58:53.502Z,100895.22
2022-12-05T21:02:46.419Z,100887.13
2022-12-05T21:36:12.752Z,100872.59
